createdAt,value
2023-02-11T00:00:39.165Z,4.77
2023-02-11T00:01:39.134Z,4.91
2023-02-11T00:02:39.121Z,4.94
2023-02-11T00:03:39.187Z,4.88
2023-02-11T00:04:39.098Z,4.82
2023-02-11T00:05:39.121Z,4.93
2023-02-11T00:06:39.083Z,4.96
2023-02-11T00:07:39.066Z,4.93
2023-02-11T00:08:39.058Z,4.96
2023-02-11T00:09:39.043Z,4.91
2023-02-11T00:10:39.046Z,4.83
2023-02-11T00:11:39.020Z,4.89
2023-02-11T00:12:39.007Z,4.82
2023-02-11T00:13:39.004Z,4.83
2023-02-11T00:14:39.012Z,4.83
2023-02-11T00:15:39.003Z,4.83
2023-02-11T00:16:39.129Z,4.75
2023-02-11T00:17:38.960Z,4.86
2023-02-11T00:18:38.943Z,4.83
2023-02-11T00:19:38.960Z,4.78
2023-02-11T00:20:38.920Z,4.82
2023-02-11T00:21:38.915Z,4.82
2023-02-11T00:22:38.901Z,4.75
2023-02-11T00:23:38.890Z,4.78
2023-02-11T00:24:38.900Z,4.82
2023-02-11T00:25:38.906Z,4.82
2023-02-11T00:26:38.855Z,4.88
2023-02-11T00:27:38.856Z,4.88
2023-02-11T00:28:38.840Z,4.79
2023-02-11T00:29:38.854Z,4.91
2023-02-11T00:30:38.976Z,4.78
2023-02-11T00:31:39.000Z,4.93
2023-02-11T00:32:38.812Z,4.91
2023-02-11T00:33:38.787Z,4.91
2023-02-11T00:34:38.789Z,4.79
2023-02-11T00:35:38.822Z,4.79
2023-02-11T00:36:38.751Z,4.82
2023-02-11T00:37:38.736Z,4.85
2023-02-11T00:38:38.740Z,4.83
2023-02-11T00:39:38.724Z,4.79
2023-02-11T00:40:38.724Z,4.89
2023-02-11T00:41:38.699Z,4.83
2023-02-11T00:42:38.688Z,4.79
2023-02-11T00:43:38.672Z,4.82
2023-02-11T00:44:38.680Z,4.82
2023-02-11T00:45:38.651Z,4.93
2023-02-11T00:46:38.682Z,4.79
2023-02-11T00:47:38.646Z,4.88
2023-02-11T00:48:38.644Z,4.89
2023-02-11T00:49:38.637Z,4.96
2023-02-11T00:50:38.597Z,4.91
2023-02-11T00:51:38.585Z,4.93
2023-02-11T00:52:38.581Z,4.79
2023-02-11T00:53:38.572Z,4.88
2023-02-11T00:54:38.567Z,4.86
2023-02-11T00:55:38.542Z,4.97
2023-02-11T00:56:38.525Z,4.79
2023-02-11T00:57:38.522Z,4.94
2023-02-11T00:58:38.526Z,4.79
2023-02-11T00:59:38.517Z,4.77
2023-02-11T01:00:38.486Z,4.88
2023-02-11T01:01:38.530Z,4.93
2023-02-11T01:02:38.465Z,4.88
2023-02-11T01:03:38.462Z,4.94
2023-02-11T01:04:38.488Z,4.77
2023-02-11T01:05:38.550Z,4.86
2023-02-11T01:06:38.423Z,4.91
2023-02-11T01:07:38.412Z,4.98
2023-02-11T01:08:38.415Z,4.91
2023-02-11T01:09:38.422Z,4.97
2023-02-11T01:10:38.383Z,4.89
2023-02-11T01:11:38.377Z,4.91
2023-02-11T01:12:38.370Z,4.93
2023-02-11T01:13:38.352Z,4.98
2023-02-11T01:14:38.368Z,4.91
2023-02-11T01:15:38.406Z,4.93
2023-02-11T01:16:38.308Z,4.97
2023-02-11T01:17:38.302Z,4.97
2023-02-11T01:18:38.312Z,4.94
2023-02-11T01:19:38.316Z,4.96
2023-02-11T01:20:38.292Z,4.96
2023-02-11T01:21:38.262Z,4.93
2023-02-11T01:22:38.249Z,4.98
2023-02-11T01:23:38.248Z,4.96
2023-02-11T01:24:38.260Z,4.91
2023-02-11T01:25:38.221Z,4.96
2023-02-11T01:26:38.208Z,4.97
2023-02-11T01:27:38.196Z,4.93
2023-02-11T01:28:38.231Z,4.93
2023-02-11T01:29:38.203Z,4.97
2023-02-11T01:30:38.193Z,4.93
2023-02-11T01:31:38.269Z,5.01
2023-02-11T01:32:38.138Z,4.93
2023-02-11T01:33:38.140Z,4.93
2023-02-11T01:34:38.124Z,4.93
2023-02-11T01:35:38.140Z,4.94
2023-02-11T01:36:38.137Z,5.07
2023-02-11T01:37:38.091Z,4.98
2023-02-11T01:38:38.092Z,4.98
2023-02-11T01:39:38.067Z,4.94
2023-02-11T01:40:38.081Z,5.03
2023-02-11T01:41:38.054Z,4.98
2023-02-11T01:42:38.035Z,5.04
2023-02-11T01:43:38.054Z,5.01
2023-02-11T01:44:38.027Z,5.09
2023-02-11T01:45:38.007Z,4.98
2023-02-11T01:46:38.048Z,5.04
2023-02-11T01:47:37.992Z,5.07
2023-02-11T01:48:37.999Z,5.07
2023-02-11T01:49:38.061Z,4.98
2023-02-11T01:50:37.951Z,5.03
2023-02-11T01:51:37.961Z,5.07
2023-02-11T01:52:37.957Z,5.06
2023-02-11T01:53:37.961Z,5.04
2023-02-11T01:54:37.910Z,5.07
2023-02-11T01:55:37.898Z,5.04
2023-02-11T01:56:37.923Z,5.01
2023-02-11T01:57:37.874Z,5.04
2023-02-11T01:58:37.866Z,5.04
2023-02-11T01:59:37.852Z,5.06
2023-02-11T02:00:37.836Z,5.06
2023-02-11T02:01:37.886Z,5.07
2023-02-11T02:02:37.824Z,5.03
2023-02-11T02:03:37.893Z,5.09
2023-02-11T02:04:37.807Z,5.11
2023-02-11T02:05:37.795Z,5.07
2023-02-11T02:06:37.804Z,5.06
2023-02-11T02:07:37.769Z,5.11
2023-02-11T02:08:37.775Z,5.11
2023-02-11T02:09:37.767Z,5.11
2023-02-11T02:10:37.734Z,5.07
2023-02-11T02:11:37.733Z,5.06
2023-02-11T02:12:37.733Z,5.09
2023-02-11T02:13:37.696Z,5.11
2023-02-11T02:14:37.728Z,5.16
2023-02-11T02:15:37.678Z,5.07
2023-02-11T02:16:37.800Z,5.07
2023-02-11T02:17:37.674Z,5.07
2023-02-11T02:18:37.648Z,5.03
2023-02-11T02:19:37.631Z,5.12
2023-02-11T02:20:37.625Z,5.15
2023-02-11T02:21:37.615Z,5.12
2023-02-11T02:22:37.631Z,5.14
2023-02-11T02:23:37.609Z,5.09
2023-02-11T02:24:37.603Z,5.16
2023-02-11T02:25:37.570Z,5.14
2023-02-11T02:26:37.569Z,5.09
2023-02-11T02:27:37.579Z,5.21
2023-02-11T02:28:37.567Z,5.16
2023-02-11T02:29:37.529Z,5.19
2023-02-11T02:30:37.575Z,5.18
2023-02-11T02:31:37.549Z,5.18
2023-02-11T02:32:37.518Z,5.21
2023-02-11T02:33:37.482Z,5.24
2023-02-11T02:34:37.470Z,5.18
2023-02-11T02:35:37.503Z,5.24
2023-02-11T02:36:37.456Z,5.22
2023-02-11T02:37:37.474Z,5.27
2023-02-11T02:38:37.431Z,5.16
2023-02-11T02:39:37.441Z,5.15
2023-02-11T02:40:37.467Z,5.18
2023-02-11T02:41:37.391Z,5.12
2023-02-11T02:42:37.412Z,5.24
2023-02-11T02:43:37.371Z,5.22
2023-02-11T02:44:37.362Z,5.22
2023-02-11T02:45:37.364Z,5.29
2023-02-11T02:46:37.403Z,5.24
2023-02-11T02:47:37.353Z,5.22
2023-02-11T02:48:37.357Z,5.29
2023-02-11T02:49:37.308Z,5.25
2023-02-11T02:50:37.330Z,5.27
2023-02-11T02:51:37.302Z,5.34
2023-02-11T02:52:37.305Z,5.19
2023-02-11T02:53:37.281Z,5.25
2023-02-11T02:54:37.260Z,5.25
2023-02-11T02:55:37.286Z,5.25
2023-02-11T02:56:37.356Z,5.22
2023-02-11T02:57:37.227Z,5.21
2023-02-11T02:58:37.220Z,5.27
2023-02-11T02:59:37.206Z,5.25
2023-02-11T03:00:37.247Z,5.27
2023-02-11T03:01:37.187Z,5.29
2023-02-11T03:02:37.185Z,5.30
2023-02-11T03:03:37.197Z,5.32
2023-02-11T03:04:37.152Z,5.27
2023-02-11T03:05:37.165Z,5.29
2023-02-11T03:06:37.134Z,5.37
2023-02-11T03:07:37.117Z,5.33
2023-02-11T03:08:37.109Z,5.33
2023-02-11T03:09:37.097Z,5.39
2023-02-11T03:10:37.125Z,5.29
2023-02-11T03:11:37.076Z,5.30
2023-02-11T03:12:37.089Z,5.32
2023-02-11T03:13:37.052Z,5.32
2023-02-11T03:14:37.049Z,5.32
2023-02-11T03:15:37.049Z,5.40
2023-02-11T03:16:37.092Z,5.39
2023-02-11T03:17:37.013Z,5.30
2023-02-11T03:18:37.001Z,5.32
2023-02-11T03:19:36.985Z,5.33
2023-02-11T03:20:37.031Z,5.30
2023-02-11T03:21:36.959Z,5.36
2023-02-11T03:22:36.982Z,5.33
2023-02-11T03:23:36.945Z,5.29
2023-02-11T03:24:36.953Z,5.29
2023-02-11T03:25:36.952Z,5.37
2023-02-11T03:26:36.916Z,5.33
2023-02-11T03:27:36.910Z,5.30
2023-02-11T03:28:36.974Z,5.30
2023-02-11T03:29:36.878Z,5.33
2023-02-11T03:30:36.870Z,5.34
2023-02-11T03:31:37.041Z,5.44
2023-02-11T03:32:36.854Z,5.34
2023-02-11T03:33:36.854Z,5.33
2023-02-11T03:34:36.832Z,5.32
2023-02-11T03:35:36.836Z,5.39
2023-02-11T03:36:36.802Z,5.43
2023-02-11T03:37:36.789Z,5.29
2023-02-11T03:38:36.782Z,5.39
2023-02-11T03:39:36.791Z,5.34
2023-02-11T03:40:36.763Z,5.36
2023-02-11T03:41:36.744Z,5.37
2023-02-11T03:42:36.740Z,5.41
2023-02-11T03:43:36.724Z,5.44
2023-02-11T03:44:36.760Z,5.37
2023-02-11T03:45:36.746Z,5.43
2023-02-11T03:46:36.693Z,5.37
2023-02-11T03:47:36.678Z,5.36
2023-02-11T03:48:36.670Z,5.39
2023-02-11T03:49:36.681Z,5.47
2023-02-11T03:50:36.651Z,5.37
2023-02-11T03:51:36.633Z,5.37
2023-02-11T03:52:36.634Z,5.40
2023-02-11T03:53:36.617Z,5.39
2023-02-11T03:54:36.631Z,5.40
2023-02-11T03:55:36.596Z,5.37
2023-02-11T03:56:36.586Z,5.32
2023-02-11T03:57:36.580Z,5.37
2023-02-11T03:58:36.556Z,5.37
2023-02-11T03:59:36.575Z,5.43
2023-02-11T04:00:36.571Z,5.39
2023-02-11T04:01:36.537Z,5.44
2023-02-11T04:02:36.525Z,5.37
2023-02-11T04:03:36.609Z,5.43
2023-02-11T04:04:36.489Z,5.43
2023-02-11T04:05:36.503Z,5.43
2023-02-11T04:06:36.467Z,5.43
2023-02-11T04:07:36.456Z,5.33
2023-02-11T04:08:36.451Z,5.34
2023-02-11T04:09:36.447Z,5.39
2023-02-11T04:10:36.457Z,5.41
2023-02-11T04:11:36.407Z,5.51
2023-02-11T04:12:36.402Z,5.41
2023-02-11T04:13:36.398Z,5.40
2023-02-11T04:14:36.390Z,5.50
2023-02-11T04:15:36.386Z,5.41
2023-02-11T04:16:36.497Z,5.47
2023-02-11T04:17:36.373Z,5.51
2023-02-11T04:18:36.358Z,5.40
2023-02-11T04:19:36.326Z,5.43
2023-02-11T04:20:36.324Z,5.44
2023-02-11T04:21:36.312Z,5.43
2023-02-11T04:22:36.316Z,5.47
2023-02-11T04:23:36.280Z,5.44
2023-02-11T04:24:36.286Z,5.44
2023-02-11T04:25:36.259Z,5.50
2023-02-11T04:26:36.274Z,5.43
2023-02-11T04:27:36.260Z,5.48
2023-02-11T04:28:36.343Z,5.44
2023-02-11T04:29:36.209Z,5.41
2023-02-11T04:30:36.206Z,5.51
2023-02-11T04:31:36.298Z,5.41
2023-02-11T04:32:36.233Z,5.55
2023-02-11T04:33:36.167Z,5.44
2023-02-11T04:34:36.160Z,5.51
2023-02-11T04:35:36.155Z,5.47
2023-02-11T04:36:36.173Z,5.50
2023-02-11T04:37:36.125Z,5.54
2023-02-11T04:38:36.118Z,5.52
2023-02-11T04:39:36.101Z,5.54
2023-02-11T04:40:36.094Z,5.55
2023-02-11T04:41:36.078Z,5.57
2023-02-11T04:42:36.101Z,5.54
2023-02-11T04:43:36.061Z,5.50
2023-02-11T04:44:36.077Z,5.55
2023-02-11T04:45:36.180Z,5.55
2023-02-11T04:46:36.023Z,5.55
2023-02-11T04:47:36.041Z,5.55
2023-02-11T04:48:36.023Z,5.51
2023-02-11T04:49:35.990Z,5.54
2023-02-11T04:50:35.996Z,5.55
2023-02-11T04:51:35.968Z,5.52
2023-02-11T04:52:35.994Z,5.54
2023-02-11T04:53:35.961Z,5.57
2023-02-11T04:54:35.940Z,5.50
2023-02-11T04:55:35.936Z,5.54
2023-02-11T04:56:35.923Z,5.52
2023-02-11T04:57:35.923Z,5.52
2023-02-11T04:58:35.892Z,5.50
2023-02-11T04:59:35.891Z,5.52
2023-02-11T05:00:35.906Z,5.54
2023-02-11T05:01:35.890Z,5.55
2023-02-11T05:02:35.892Z,5.52
2023-02-11T05:03:35.853Z,5.51
2023-02-11T05:04:35.857Z,5.47
2023-02-11T05:05:35.818Z,5.54
2023-02-11T05:06:35.813Z,5.57
2023-02-11T05:07:35.818Z,5.61
2023-02-11T05:08:35.788Z,5.59
2023-02-11T05:09:35.773Z,5.58
2023-02-11T05:10:35.766Z,5.67
2023-02-11T05:11:35.758Z,5.57
2023-02-11T05:12:35.790Z,5.62
2023-02-11T05:13:35.734Z,5.67
2023-02-11T05:14:35.727Z,5.62
2023-02-11T05:15:35.745Z,5.67
2023-02-11T05:16:35.822Z,5.61
2023-02-11T05:17:35.716Z,5.66
2023-02-11T05:18:35.683Z,5.66
2023-02-11T05:19:35.666Z,5.61
2023-02-11T05:20:35.675Z,5.61
2023-02-11T05:21:35.646Z,5.62
2023-02-11T05:22:35.661Z,5.59
2023-02-11T05:23:35.629Z,5.55
2023-02-11T05:24:35.613Z,5.62
2023-02-11T05:25:35.601Z,5.62
2023-02-11T05:26:35.615Z,5.62
2023-02-11T05:27:35.625Z,5.66
2023-02-11T05:28:35.684Z,5.62
2023-02-11T05:29:35.557Z,5.58
2023-02-11T05:30:35.629Z,5.66
2023-02-11T05:31:35.549Z,5.61
2023-02-11T05:32:35.528Z,5.61
2023-02-11T05:33:35.541Z,5.67
2023-02-11T05:34:35.543Z,5.57
2023-02-11T05:35:35.527Z,5.59
2023-02-11T05:36:35.516Z,5.62
2023-02-11T05:37:35.566Z,5.57
2023-02-11T05:38:35.466Z,5.57
2023-02-11T05:39:35.478Z,5.62
2023-02-11T05:40:35.446Z,5.59
2023-02-11T05:41:35.430Z,5.58
2023-02-11T05:42:35.417Z,5.61
2023-02-11T05:43:35.449Z,5.62
2023-02-11T05:44:35.424Z,5.61
2023-02-11T05:45:35.387Z,5.69
2023-02-11T05:46:35.467Z,5.65
2023-02-11T05:47:35.401Z,5.72
2023-02-11T05:48:35.358Z,5.65
2023-02-11T05:49:35.351Z,5.61
2023-02-11T05:50:35.352Z,5.72
2023-02-11T05:51:35.328Z,5.65
2023-02-11T05:52:35.368Z,5.67
2023-02-11T05:53:35.312Z,5.65
2023-02-11T05:54:35.294Z,5.67
2023-02-11T05:55:35.311Z,5.67
2023-02-11T05:56:35.276Z,5.69
2023-02-11T05:57:35.259Z,5.67
2023-02-11T05:58:35.255Z,5.69
2023-02-11T05:59:35.240Z,5.67
2023-02-11T06:00:35.269Z,5.58
2023-02-11T06:01:35.223Z,5.66
2023-02-11T06:02:35.249Z,5.67
2023-02-11T06:03:35.212Z,5.70
2023-02-11T06:04:35.216Z,5.66
2023-02-11T06:05:35.207Z,5.69
2023-02-11T06:06:35.165Z,5.72
2023-02-11T06:07:35.161Z,5.75
2023-02-11T06:08:37.025Z,5.72
2023-02-11T06:09:35.160Z,5.75
2023-02-11T06:10:35.143Z,5.76
2023-02-11T06:11:35.110Z,5.69
2023-02-11T06:12:35.110Z,5.69
2023-02-11T06:13:35.088Z,5.75
2023-02-11T06:14:35.106Z,5.69
2023-02-11T06:15:35.104Z,5.70
2023-02-11T06:16:35.058Z,5.76
2023-02-11T06:17:35.049Z,5.76
2023-02-11T06:18:35.043Z,5.65
2023-02-11T06:19:35.025Z,5.77
2023-02-11T06:20:35.061Z,5.73
2023-02-11T06:21:43.550Z,5.70
2023-02-11T06:22:36.002Z,5.75
2023-02-11T06:23:34.995Z,5.72
2023-02-11T06:24:58.552Z,5.69
2023-02-11T06:25:35.988Z,5.70
2023-02-11T06:26:34.966Z,5.79
2023-02-11T06:27:34.946Z,5.70
2023-02-11T06:28:34.974Z,5.72
2023-02-11T06:29:34.936Z,5.72
2023-02-11T06:30:34.928Z,5.72
2023-02-11T06:31:35.041Z,5.72
2023-02-11T06:32:43.865Z,5.75
2023-02-11T06:33:35.890Z,5.69
2023-02-11T06:34:34.865Z,5.75
2023-02-11T06:35:34.885Z,5.80
2023-02-11T06:36:34.854Z,5.73
2023-02-11T06:37:34.869Z,5.75
2023-02-11T06:38:34.834Z,5.70
2023-02-11T06:39:34.820Z,5.75
2023-02-11T06:40:34.825Z,5.73
2023-02-11T06:41:34.808Z,5.84
2023-02-11T06:42:34.804Z,5.73
2023-02-11T06:43:34.775Z,5.77
2023-02-11T06:44:34.758Z,5.82
2023-02-11T06:45:34.749Z,5.76
2023-02-11T06:46:34.799Z,5.87
2023-02-11T06:47:34.772Z,5.77
2023-02-11T06:48:34.726Z,5.75
2023-02-11T06:49:34.735Z,5.80
2023-02-11T06:50:34.711Z,5.88
2023-02-11T06:51:34.696Z,5.87
2023-02-11T06:52:34.696Z,5.77
2023-02-11T06:53:34.671Z,5.80
2023-02-11T06:54:34.655Z,5.79
2023-02-11T06:55:34.645Z,5.79
2023-02-11T06:56:34.677Z,5.80
2023-02-11T06:57:34.639Z,5.85
2023-02-11T06:58:34.613Z,5.80
2023-02-11T06:59:34.602Z,5.84
2023-02-11T07:00:34.612Z,5.82
2023-02-11T07:01:34.650Z,5.84
2023-02-11T07:02:34.716Z,5.79
2023-02-11T07:03:34.564Z,5.82
2023-02-11T07:04:34.548Z,5.77
2023-02-11T07:05:34.533Z,5.85
2023-02-11T07:06:34.552Z,5.82
2023-02-11T07:07:34.552Z,5.84
2023-02-11T07:08:34.509Z,5.79
2023-02-11T07:09:34.492Z,5.88
2023-02-11T07:10:34.485Z,5.88
2023-02-11T07:11:34.520Z,5.91
2023-02-11T07:12:34.487Z,5.85
2023-02-11T07:13:34.454Z,5.82
2023-02-11T07:14:34.443Z,5.82
2023-02-11T07:15:34.434Z,5.87
2023-02-11T07:16:34.521Z,5.85
2023-02-11T07:17:34.407Z,5.84
2023-02-11T07:18:34.440Z,5.84
2023-02-11T07:19:34.391Z,5.85
2023-02-11T07:20:34.387Z,5.93
2023-02-11T07:21:34.401Z,5.84
2023-02-11T07:22:34.356Z,5.94
2023-02-11T07:23:34.348Z,5.97
2023-02-11T07:24:34.338Z,5.94
2023-02-11T07:25:34.334Z,5.93
2023-02-11T07:26:34.336Z,5.97
2023-02-11T07:27:34.305Z,5.91
2023-02-11T07:28:34.431Z,5.97
2023-02-11T07:29:34.279Z,5.91
2023-02-11T07:30:34.270Z,5.95
2023-02-11T07:31:34.394Z,5.94
2023-02-11T07:32:34.253Z,5.95
2023-02-11T07:33:34.237Z,6.00
2023-02-11T07:34:34.316Z,5.94
2023-02-11T07:35:34.217Z,6.00
2023-02-11T07:36:34.251Z,6.05
2023-02-11T07:37:34.196Z,6.05
2023-02-11T07:38:34.236Z,5.94
2023-02-11T07:39:34.184Z,5.97
2023-02-11T07:40:34.168Z,6.00
2023-02-11T07:41:37.360Z,6.00
2023-02-11T07:42:34.161Z,5.97
2023-02-11T07:43:34.144Z,6.11
2023-02-11T07:44:34.147Z,6.13
2023-02-11T07:45:34.115Z,6.05
2023-02-11T07:46:34.148Z,6.13
2023-02-11T07:47:34.125Z,6.11
2023-02-11T07:48:34.111Z,6.09
2023-02-11T07:49:34.064Z,6.00
2023-02-11T07:50:34.049Z,6.09
2023-02-11T07:51:34.051Z,6.19
2023-02-11T07:52:34.035Z,6.19
2023-02-11T07:53:34.031Z,6.19
2023-02-11T07:54:34.032Z,6.15
2023-02-11T07:55:34.042Z,6.16
2023-02-11T07:56:34.003Z,6.18
2023-02-11T07:57:33.984Z,6.15
2023-02-11T07:58:33.964Z,6.15
2023-02-11T07:59:33.984Z,6.16
2023-02-11T08:00:34.029Z,6.21
2023-02-11T08:01:33.967Z,6.19
2023-02-11T08:02:33.986Z,6.15
2023-02-11T08:03:33.976Z,6.16
2023-02-11T08:04:33.904Z,6.16
2023-02-11T08:05:33.894Z,6.13
2023-02-11T08:06:33.908Z,6.12
2023-02-11T08:07:33.871Z,6.13
2023-02-11T08:08:33.901Z,6.16
2023-02-11T08:09:34.644Z,6.28
2023-02-11T08:10:33.837Z,6.25
2023-02-11T08:11:33.835Z,6.21
2023-02-11T08:12:33.818Z,6.24
2023-02-11T08:13:33.832Z,6.31
2023-02-11T08:14:33.800Z,6.19
2023-02-11T08:15:33.781Z,6.24
2023-02-11T08:16:34.007Z,6.32
2023-02-11T08:17:33.769Z,6.27
2023-02-11T08:18:33.770Z,6.25
2023-02-11T08:19:35.242Z,6.32
2023-02-11T08:20:33.725Z,6.32
2023-02-11T08:21:33.715Z,6.25
2023-02-11T08:22:33.703Z,6.38
2023-02-11T08:23:33.699Z,6.35
2023-02-11T08:24:33.702Z,6.34
2023-02-11T08:25:33.703Z,6.25
2023-02-11T08:26:33.661Z,6.27
2023-02-11T08:27:33.653Z,6.32
2023-02-11T08:28:33.668Z,6.28
2023-02-11T08:29:33.637Z,6.35
2023-02-11T08:30:33.641Z,6.31
2023-02-11T08:31:33.761Z,6.31
2023-02-11T08:32:33.611Z,6.34
2023-02-11T08:33:33.584Z,6.31
2023-02-11T08:34:33.602Z,6.40
2023-02-11T08:35:33.564Z,6.34
2023-02-11T08:36:33.552Z,6.40
2023-02-11T08:37:33.540Z,6.35
2023-02-11T08:38:33.525Z,6.31
2023-02-11T08:39:33.517Z,6.43
2023-02-11T08:40:33.523Z,6.34
2023-02-11T08:41:33.526Z,6.45
2023-02-11T08:42:33.483Z,6.45
2023-02-11T08:43:33.532Z,6.31
2023-02-11T08:44:33.457Z,6.45
2023-02-11T08:45:33.501Z,6.40
2023-02-11T08:46:33.554Z,6.42
2023-02-11T08:47:33.437Z,6.43
2023-02-11T08:48:33.438Z,6.45
2023-02-11T08:49:33.404Z,6.43
2023-02-11T08:50:33.452Z,6.42
2023-02-11T08:51:33.416Z,6.43
2023-02-11T08:52:33.367Z,6.49
2023-02-11T08:53:33.364Z,6.43
2023-02-11T08:54:33.344Z,6.50
2023-02-11T08:55:33.343Z,6.46
2023-02-11T08:56:33.357Z,6.45
2023-02-11T08:57:33.325Z,6.43
2023-02-11T08:58:33.307Z,6.45
2023-02-11T08:59:33.321Z,6.45
2023-02-11T09:00:33.284Z,6.47
2023-02-11T09:01:33.389Z,6.47
2023-02-11T09:02:33.280Z,6.55
2023-02-11T09:03:33.258Z,6.46
2023-02-11T09:04:33.323Z,6.56
2023-02-11T09:05:33.228Z,6.49
2023-02-11T09:06:33.246Z,6.53
2023-02-11T09:07:33.212Z,6.47
2023-02-11T09:08:33.191Z,6.53
2023-02-11T09:09:33.193Z,6.60
2023-02-11T09:10:33.182Z,6.56
2023-02-11T09:11:33.195Z,6.50
2023-02-11T09:12:33.173Z,6.53
2023-02-11T09:13:33.141Z,6.56
2023-02-11T09:14:33.126Z,6.56
2023-02-11T09:15:33.125Z,6.60
2023-02-11T09:16:33.132Z,6.63
2023-02-11T09:17:33.118Z,6.60
2023-02-11T09:18:33.086Z,6.63
2023-02-11T09:19:33.079Z,6.61
2023-02-11T09:20:33.090Z,6.64
2023-02-11T09:21:33.080Z,6.64
2023-02-11T09:22:33.045Z,6.65
2023-02-11T09:23:33.032Z,6.63
2023-02-11T09:24:33.025Z,6.63
2023-02-11T09:25:33.021Z,6.64
2023-02-11T09:26:33.023Z,6.68
2023-02-11T09:27:33.019Z,6.50
2023-02-11T09:28:33.005Z,6.73
2023-02-11T09:29:32.976Z,6.61
2023-02-11T09:30:33.040Z,6.63
2023-02-11T09:31:33.046Z,6.64
2023-02-11T09:32:32.954Z,6.63
2023-02-11T09:33:32.923Z,6.64
2023-02-11T09:34:32.915Z,6.64
2023-02-11T09:35:32.906Z,6.71
2023-02-11T09:36:32.909Z,6.60
2023-02-11T09:37:34.621Z,6.65
2023-02-11T09:38:32.868Z,6.60
2023-02-11T09:39:32.861Z,6.63
2023-02-11T09:40:32.851Z,6.67
2023-02-11T09:41:32.867Z,6.67
2023-02-11T09:42:32.838Z,6.64
2023-02-11T09:43:32.818Z,6.61
2023-02-11T09:44:32.825Z,6.68
2023-02-11T09:45:32.795Z,6.63
2023-02-11T09:46:32.862Z,6.67
2023-02-11T09:47:32.803Z,6.71
2023-02-11T09:48:32.762Z,6.74
2023-02-11T09:49:32.782Z,6.74
2023-02-11T09:50:32.750Z,6.70
2023-02-11T09:51:32.757Z,6.78
2023-02-11T09:52:32.743Z,6.73
2023-02-11T09:53:32.722Z,6.75
2023-02-11T09:54:32.736Z,6.79
2023-02-11T09:55:32.689Z,6.79
2023-02-11T09:56:32.700Z,6.75
2023-02-11T09:57:32.671Z,6.81
2023-02-11T09:58:32.654Z,6.78
2023-02-11T09:59:32.646Z,6.81
2023-02-11T10:00:32.657Z,6.74
2023-02-11T10:01:32.701Z,6.79
2023-02-11T10:02:32.627Z,6.78
2023-02-11T10:03:32.601Z,6.81
2023-02-11T10:04:32.631Z,6.81
2023-02-11T10:05:32.583Z,6.78
2023-02-11T10:06:32.615Z,6.75
2023-02-11T10:07:32.574Z,6.78
2023-02-11T10:08:32.603Z,6.78
2023-02-11T10:09:32.538Z,6.81
2023-02-11T10:10:32.517Z,6.82
2023-02-11T10:11:32.705Z,6.89
2023-02-11T10:12:33.301Z,6.86
2023-02-11T10:13:32.512Z,6.82
2023-02-11T10:14:32.483Z,6.78
2023-02-11T10:15:32.502Z,6.86
2023-02-11T10:16:32.486Z,6.85
2023-02-11T10:17:32.453Z,6.85
2023-02-11T10:18:32.445Z,6.89
2023-02-11T10:19:32.434Z,6.85
2023-02-11T10:20:32.424Z,6.85
2023-02-11T10:21:32.428Z,6.78
2023-02-11T10:22:32.403Z,6.83
2023-02-11T10:23:32.390Z,6.88
2023-02-11T10:24:32.427Z,6.89
2023-02-11T10:25:32.364Z,6.88
2023-02-11T10:26:32.376Z,6.89
2023-02-11T10:27:32.361Z,6.86
2023-02-11T10:28:32.394Z,6.88
2023-02-11T10:29:32.323Z,6.93
2023-02-11T10:30:32.460Z,6.93
2023-02-11T10:31:32.413Z,6.93
2023-02-11T10:32:32.291Z,6.89
2023-02-11T10:33:32.278Z,6.93
2023-02-11T10:34:32.267Z,6.96
2023-02-11T10:35:32.260Z,6.89
2023-02-11T10:36:32.253Z,6.99
2023-02-11T10:37:32.269Z,7.00
2023-02-11T10:38:32.225Z,6.96
2023-02-11T10:39:32.216Z,7.00
2023-02-11T10:40:32.224Z,6.99
2023-02-11T10:41:32.208Z,7.01
2023-02-11T10:42:32.211Z,7.03
2023-02-11T10:43:32.168Z,7.00
2023-02-11T10:44:32.161Z,6.99
2023-02-11T10:45:32.151Z,6.97
2023-02-11T10:46:32.262Z,7.03
2023-02-11T10:47:32.152Z,7.03
2023-02-11T10:48:32.122Z,7.03
2023-02-11T10:49:32.114Z,7.03
2023-02-11T10:50:32.095Z,7.01
2023-02-11T10:51:32.107Z,7.00
2023-02-11T10:52:32.074Z,7.03
2023-02-11T10:53:32.074Z,7.06
2023-02-11T10:54:32.056Z,6.93
2023-02-11T10:55:32.037Z,7.10
2023-02-11T10:56:32.083Z,6.97
2023-02-11T10:57:32.051Z,7.08
2023-02-11T10:58:32.026Z,7.08
2023-02-11T10:59:32.026Z,6.92
2023-02-11T11:00:31.988Z,7.07
2023-02-11T11:01:32.011Z,7.10
2023-02-11T11:02:32.190Z,7.06
2023-02-11T11:03:31.958Z,7.11
2023-02-11T11:04:32.026Z,7.04
2023-02-11T11:05:31.928Z,7.11
2023-02-11T11:06:31.925Z,7.04
2023-02-11T11:07:31.926Z,7.04
2023-02-11T11:08:31.935Z,7.15
2023-02-11T11:09:31.889Z,7.13
2023-02-11T11:10:31.881Z,7.04
2023-02-11T11:11:31.859Z,7.13
2023-02-11T11:12:31.917Z,7.10
2023-02-11T11:13:31.843Z,7.18
2023-02-11T11:14:31.838Z,7.16
2023-02-11T11:15:31.825Z,7.19
2023-02-11T11:16:31.840Z,7.13
2023-02-11T11:17:31.823Z,7.11
2023-02-11T11:18:31.848Z,7.15
2023-02-11T11:19:31.778Z,7.19
2023-02-11T11:20:31.812Z,7.19
2023-02-11T11:21:31.789Z,7.10
2023-02-11T11:22:31.749Z,7.18
2023-02-11T11:23:31.742Z,7.24
2023-02-11T11:24:31.731Z,7.13
2023-02-11T11:25:31.711Z,7.19
2023-02-11T11:26:31.725Z,7.18
2023-02-11T11:27:31.687Z,7.11
2023-02-11T11:28:31.814Z,7.21
2023-02-11T11:29:31.669Z,7.19
2023-02-11T11:30:31.705Z,7.15
2023-02-11T11:31:31.830Z,7.18
2023-02-11T11:32:31.640Z,7.24
2023-02-11T11:33:31.650Z,7.21
2023-02-11T11:34:31.621Z,7.26
2023-02-11T11:35:31.604Z,7.21
2023-02-11T11:36:31.625Z,7.26
2023-02-11T11:37:31.579Z,7.19
2023-02-11T11:38:31.596Z,7.24
2023-02-11T11:39:31.564Z,7.28
2023-02-11T11:40:31.557Z,7.18
2023-02-11T11:41:31.545Z,7.31
2023-02-11T11:42:31.550Z,7.19
2023-02-11T11:43:31.513Z,7.37
2023-02-11T11:44:31.551Z,7.28
2023-02-11T11:45:31.504Z,7.26
2023-02-11T11:46:31.565Z,7.25
2023-02-11T11:47:31.466Z,7.36
2023-02-11T11:48:31.525Z,7.28
2023-02-11T11:49:31.450Z,7.31
2023-02-11T11:50:31.479Z,7.29
2023-02-11T11:51:31.440Z,7.34
2023-02-11T11:52:31.411Z,7.31
2023-02-11T11:53:31.403Z,7.25
2023-02-11T11:54:31.384Z,7.43
2023-02-11T11:55:31.385Z,7.31
2023-02-11T11:56:31.402Z,7.36
2023-02-11T11:57:31.386Z,7.42
2023-02-11T11:58:31.352Z,7.36
2023-02-11T11:59:31.359Z,7.42
2023-02-11T12:00:31.391Z,7.33
2023-02-11T12:01:31.469Z,7.42
2023-02-11T12:02:31.311Z,7.42
2023-02-11T12:03:31.375Z,7.43
2023-02-11T12:04:31.285Z,7.40
2023-02-11T12:05:32.314Z,7.37
2023-02-11T12:06:31.273Z,7.43
2023-02-11T12:07:31.253Z,7.42
2023-02-11T12:08:31.244Z,7.44
2023-02-11T12:09:31.226Z,7.40
2023-02-11T12:10:31.247Z,7.44
2023-02-11T12:11:31.209Z,7.49
2023-02-11T12:12:31.198Z,7.40
2023-02-11T12:13:31.188Z,7.33
2023-02-11T12:14:31.208Z,7.46
2023-02-11T12:15:31.166Z,7.49
2023-02-11T12:16:31.215Z,7.49
2023-02-11T12:17:31.144Z,7.52
2023-02-11T12:18:31.131Z,7.54
2023-02-11T12:19:31.122Z,7.54
2023-02-11T12:20:31.136Z,7.46
2023-02-11T12:21:31.118Z,7.49
2023-02-11T12:22:31.091Z,7.46
2023-02-11T12:23:31.073Z,7.57
2023-02-11T12:24:31.077Z,7.50
2023-02-11T12:25:31.064Z,7.55
2023-02-11T12:26:31.120Z,7.50
2023-02-11T12:27:31.030Z,7.55
2023-02-11T12:28:31.148Z,7.49
2023-02-11T12:29:31.006Z,7.57
2023-02-11T12:30:31.060Z,7.52
2023-02-11T12:31:31.082Z,7.50
2023-02-11T12:32:30.998Z,7.52
2023-02-11T12:33:30.964Z,7.62
2023-02-11T12:34:30.954Z,7.61
2023-02-11T12:35:30.963Z,7.57
2023-02-11T12:36:30.967Z,7.62
2023-02-11T12:37:30.929Z,7.62
2023-02-11T12:38:30.912Z,7.64
2023-02-11T12:39:30.953Z,7.64
2023-02-11T12:40:30.898Z,7.64
2023-02-11T12:41:30.879Z,7.61
2023-02-11T12:42:30.876Z,7.62
2023-02-11T12:43:30.872Z,7.61
2023-02-11T12:44:30.876Z,7.71
2023-02-11T12:45:30.914Z,7.64
2023-02-11T12:46:30.832Z,7.66
2023-02-11T12:47:30.810Z,7.69
2023-02-11T12:48:30.825Z,7.68
2023-02-11T12:49:30.797Z,7.69
2023-02-11T12:50:30.809Z,7.73
2023-02-11T12:51:30.764Z,7.74
2023-02-11T12:52:30.768Z,7.68
2023-02-11T12:53:30.747Z,7.74
2023-02-11T12:54:30.744Z,7.71
2023-02-11T12:55:30.755Z,7.77
2023-02-11T12:56:30.715Z,7.68
2023-02-11T12:57:30.713Z,7.61
2023-02-11T12:58:44.106Z,7.68
2023-02-11T12:59:31.682Z,7.73
2023-02-11T13:00:30.679Z,7.74
2023-02-11T13:01:30.742Z,7.76
2023-02-11T13:02:30.712Z,7.78
2023-02-11T13:03:30.663Z,7.68
2023-02-11T13:04:30.656Z,7.74
2023-02-11T13:05:30.623Z,7.76
2023-02-11T13:06:30.621Z,7.73
2023-02-11T13:07:30.600Z,7.78
2023-02-11T13:08:30.613Z,7.80
2023-02-11T13:09:30.579Z,7.77
2023-02-11T13:10:30.598Z,7.81
2023-02-11T13:11:30.568Z,7.81
2023-02-11T13:12:30.549Z,7.76
2023-02-11T13:13:30.538Z,7.81
2023-02-11T13:14:30.521Z,7.80
2023-02-11T13:15:30.534Z,7.81
2023-02-11T13:16:30.532Z,7.86
2023-02-11T13:17:30.491Z,7.76
2023-02-11T13:18:30.494Z,7.77